EDT,Max TemperatureF,Mean TemperatureF,Min TemperatureF,Max Dew PointF,MeanDew PointF,Min DewpointF,Max Humidity, Mean Humidity, Min Humidity, Max Sea Level PressureIn, Mean Sea Level PressureIn, Min Sea Level PressureIn, Max VisibilityMiles, Mean VisibilityMiles, Min VisibilityMiles, Max Wind SpeedMPH, Mean Wind SpeedMPH, Max Gust SpeedMPH,PrecipitationIn, CloudCover, Events, WindDirDegrees
2013-10-1,81,72,62,58,53,50,67,52,36,30.01,29.96,29.89,10,10,10,14,6,17,0.00,1,,289
2013-10-2,84,75,66,60,56,52,68,54,40,30.01,29.95,29.90,10,10,10,18,7,24,0.00,0,,291
2013-10-3,79,72,65,61,54,45,87,59,31,30.12,30.07,30.02,10,10,9,14,5,17,0.00,6,,242
2013-10-4,86,77,67,66,60,53,90,67,44,30.06,30.02,29.96,10,9,5,16,6,21,0.03,5,,182
2013-10-5,73,69,64,63,61,60,87,76,64,30.10,30.06,30.03,10,8,5,14,7,16,0.00,7,,69
2013-10-6,70,68,65,65,63,62,93,89,84,30.10,30.07,30.04,9,4,1,15,9,18,0.01,8,Rain,114
2013-10-7,77,70,62,68,62,47,90,73,56,30.02,29.89,29.78,10,8,1,29,14,39,0.33,7,Rain,202
2013-10-8,66,61,56,44,42,38,66,50,34,30.32,30.20,30.01,10,10,10,18,11,24,0.00,6,,358
2013-10-9,63,59,54,47,45,40,71,62,52,30.40,30.34,30.29,10,10,10,24,14,30,0.00,7,,58
2013-10-10,66,60,54,55,51,46,77,72,67,30.28,30.18,30.08,10,10,10,25,17,29,T,8,,44
2013-10-11,69,65,61,58,56,49,78,65,52,30.09,30.05,30.01,10,10,10,24,18,33,T,8,Rain,55
2013-10-12,72,66,60,54,47,32,67,46,24,30.29,30.18,30.08,10,10,10,28,18,36,0.00,6,,62
2013-10-13,64,60,56,52,49,46,77,67,56,30.39,30.35,30.29,10,10,10,26,16,31,0.00,6,,71
2013-10-14,65,59,53,49,46,44,72,62,52,30.37,30.32,30.26,10,10,10,10,6,17,0.00,3,,97
2013-10-15,70,63,56,54,50,41,86,63,40,30.26,30.20,30.12,10,10,9,12,6,16,0.00,2,,69
2013-10-16,65,61,57,58,54,49,90,77,63,30.11,30.02,29.93,10,10,10,12,7,23,0.00,8,,73
2013-10-17,73,67,61,61,59,57,90,76,61,29.92,29.84,29.70,10,8,2,15,8,20,0.01,7,Rain,197
2013-10-18,69,64,58,61,45,39,81,58,35,29.98,29.83,29.68,10,10,10,23,14,32,0.00,2,,272
2013-10-19,64,59,54,54,45,37,78,59,39,29.99,29.89,29.74,10,10,10,17,6,23,T,6,Rain,195
2013-10-20,63,57,51,52,37,31,72,51,30,30.06,29.93,29.76,10,10,10,21,12,28,0.00,1,,288
2013-10-21,67,60,52,44,36,30,62,44,26,30.15,30.08,30.00,10,10,10,20,9,24,0.00,1,,216
2013-10-22,68,61,53,47,43,34,77,59,40,29.98,29.84,29.75,10,10,10,20,9,26,T,4,Rain,235
2013-10-23,55,51,47,40,35,30,65,53,41,29.81,29.73,29.62,10,10,10,20,10,25,T,6,Rain,7
2013-10-24,54,49,43,35,28,22,70,49,28,30.01,29.90,29.77,10,10,10,23,14,31,0.00,2,,279
2013-10-25,55,49,42,32,29,26,62,50,38,30.23,30.12,30.01,10,10,10,25,14,33,0.00,2,,294
2013-10-26,56,50,43,32,28,24,58,44,30,30.22,30.09,29.91,10,10,10,24,12,32,0.00,3,,227
2013-10-27,59,54,49,31,29,26,50,40,30,30.12,29.96,29.86,10,10,10,21,12,28,T,3,Rain,276
2013-10-28,61,53,44,34,30,27,58,44,29,30.32,30.21,30.13,10,10,10,17,9,24,0.00,3,,277
2013-10-29,55,50,44,37,30,28,61,50,38,30.42,30.38,30.33,10,10,10,15,8,18,0.00,4,,48
2013-10-30,60,54,48,50,41,30,77,64,50,30.34,30.26,30.19,10,10,9,13,5,16,0.00,7,,178
2013-10-31,67,60,53,58,54,47,84,78,72,30.22,30.06,29.81,10,8,5,17,8,22,0.05,8,Rain,179